Time;durP1;ratioP1;P1;durP2;ratioP2;P2;SDS_P1;SDS_P2;PMS_P1;PMS_P2;Temp;Humidity;BMP_temperature;BMP_pressure;BME280_temperature;BME280_humidity;BME280_pressure;Samples;Min_cycle;Max_cycle;Signal;HPM_P1;HPM_P2
2021/05/24 00:01:13;;;;;;;;;;;6.80;93.00;;;;;;5091719;28;19912;-71
2021/05/24 00:03:39;;;;;;;;;;;6.90;92.50;;;;;;5093872;28;19959;-71
2021/05/24 00:06:04;;;;;;;;;;;6.90;92.60;;;;;;5088030;28;19923;-72
2021/05/24 00:08:30;;;;;;;;;;;6.90;92.40;;;;;;5092521;28;20233;-71
2021/05/24 00:10:56;;;;;;;;;;;7.00;92.40;;;;;;5080346;28;19912;-71
2021/05/24 00:13:22;;;;;;;;;;;7.00;92.20;;;;;;5094278;28;19912;-72
2021/05/24 00:15:52;;;;;;;;;;;7.10;91.50;;;;;;5093757;28;19923;-71
2021/05/24 00:18:17;;;;;;;;;;;7.30;91.00;;;;;;5097315;28;19935;-71
2021/05/24 00:20:48;;;;;;;;;;;7.50;90.10;;;;;;5078813;28;19912;-71
2021/05/24 00:23:14;;;;;;;;;;;7.60;89.70;;;;;;5094776;28;20003;-71
2021/05/24 00:25:39;;;;;;;;;;;7.60;89.40;;;;;;5079395;28;20402;-72
2021/05/24 00:28:06;;;;;;;;;;;7.70;89.20;;;;;;5110054;28;20348;-71
2021/05/24 00:30:33;;;;;;;;;;;7.70;89.00;;;;;;5101628;28;19938;-72
2021/05/24 00:32:59;;;;;;;;;;;7.60;89.30;;;;;;5093425;28;20010;-72
2021/05/24 00:35:28;;;;;;;;;;;7.50;89.50;;;;;;5094156;28;20328;-71
2021/05/24 00:37:53;;;;;;;;;;;7.40;90.20;;;;;;5078084;28;19917;-71
2021/05/24 00:40:19;;;;;;;;;;;7.30;90.20;;;;;;5089480;28;19919;-71
2021/05/24 00:42:44;;;;;;;;;;;7.30;90.40;;;;;;5081877;28;19924;-71
2021/05/24 00:45:10;;;;;;;;;;;7.30;90.30;;;;;;5087473;28;19920;-70
2021/05/24 00:47:36;;;;;;;;;;;7.50;89.20;;;;;;5102944;28;20003;-70
2021/05/24 00:50:02;;;;;;;;;;;7.80;88.00;;;;;;5066870;28;19913;-70
2021/05/24 00:52:27;;;;;;;;;;;7.90;87.70;;;;;;5074902;28;19935;-70
2021/05/24 00:54:53;;;;;;;;;;;8.00;86.60;;;;;;5083424;28;19974;-71
2021/05/24 00:57:18;;;;;;;;;;;8.10;86.70;;;;;;5092822;28;19924;-70
2021/05/24 00:59:44;;;;;;;;;;;8.10;86.20;;;;;;5089150;28;20264;-71
2021/05/24 01:02:10;;;;;;;;;;;8.30;85.20;;;;;;5091076;28;19916;-71
2021/05/24 01:04:35;;;;;;;;;;;8.50;84.10;;;;;;5087398;28;19912;-71
2021/05/24 01:07:02;;;;;;;;;;;8.70;83.40;;;;;;5095161;28;19912;-70
2021/05/24 01:09:30;;;;;;;;;;;8.70;83.30;;;;;;5092670;28;20489;-71
2021/05/24 01:11:56;;;;;;;;;;;8.80;83.90;;;;;;5085082;28;19923;-71
2021/05/24 01:14:22;;;;;;;;;;;8.60;84.20;;;;;;5093192;28;19916;-71
2021/05/24 01:16:52;;;;;;;;;;;8.60;84.60;;;;;;5087746;28;19924;-71
2021/05/24 01:19:18;;;;;;;;;;;8.50;85.00;;;;;;5079577;28;20312;-71
2021/05/24 01:21:44;;;;;;;;;;;8.50;85.30;;;;;;5086964;28;19919;-70
2021/05/24 01:24:10;;;;;;;;;;;8.50;85.50;;;;;;5084026;28;19912;-70
2021/05/24 01:26:35;;;;;;;;;;;8.40;86.00;;;;;;5091302;28;19947;-70
2021/05/24 01:29:01;;;;;;;;;;;8.40;85.80;;;;;;5066872;28;20212;-70
2021/05/24 01:31:26;;;;;;;;;;;8.40;85.70;;;;;;5086436;28;19919;-71
2021/05/24 01:33:57;;;;;;;;;;;8.40;85.10;;;;;;5079990;28;19951;-71
2021/05/24 01:36:23;;;;;;;;;;;8.50;84.90;;;;;;5093634;28;19959;-71
2021/05/24 01:38:48;;;;;;;;;;;8.60;83.90;;;;;;5092829;28;19968;-70
2021/05/24 01:41:14;;;;;;;;;;;8.60;84.00;;;;;;5091116;28;20243;-70
2021/05/24 01:43:39;;;;;;;;;;;8.60;83.70;;;;;;5085359;28;19911;-71
2021/05/24 01:46:05;;;;;;;;;;;8.80;82.80;;;;;;5105306;28;19919;-70
2021/05/24 01:48:39;;;;;;;;;;;8.90;82.80;;;;;;5097030;28;20223;-71
2021/05/24 01:51:05;;;;;;;;;;;8.90;82.20;;;;;;5094903;28;19920;-71
2021/05/24 01:53:30;;;;;;;;;;;9.00;81.70;;;;;;5078969;28;19923;-70
2021/05/24 01:55:56;;;;;;;;;;;9.00;82.30;;;;;;5079836;28;20232;-71
2021/05/24 01:58:23;;;;;;;;;;;8.90;82.30;;;;;;5093237;28;19982;-71
2021/05/24 02:00:48;;;;;;;;;;;9.00;82.20;;;;;;5097317;28;19935;-70
2021/05/24 02:03:14;;;;;;;;;;;9.00;82.40;;;;;;5097767;28;20321;-71
2021/05/24 02:05:40;;;;;;;;;;;9.10;82.20;;;;;;5093199;28;19916;-71
2021/05/24 02:08:06;;;;;;;;;;;9.20;82.30;;;;;;5097351;28;19919;-70
2021/05/24 02:10:33;;;;;;;;;;;9.10;82.60;;;;;;5097364;28;19912;-70
2021/05/24 02:12:58;;;;;;;;;;;9.00;83.80;;;;;;5094546;28;19920;-71
2021/05/24 02:15:26;;;;;;;;;;;9.00;83.10;;;;;;5078053;28;20273;-71
2021/05/24 02:17:51;;;;;;;;;;;9.00;82.80;;;;;;5097248;28;20002;-71
2021/05/24 02:20:22;;;;;;;;;;;9.10;82.90;;;;;;5097255;28;20058;-70
2021/05/24 02:22:48;;;;;;;;;;;9.20;82.70;;;;;;5094830;28;19916;-70
2021/05/24 02:25:13;;;;;;;;;;;9.30;82.10;;;;;;5098765;28;19909;-69
2021/05/24 02:27:39;;;;;;;;;;;9.40;81.60;;;;;;5097643;28;19991;-69
2021/05/24 02:30:06;;;;;;;;;;;9.50;81.90;;;;;;5086731;28;19917;-70
2021/05/24 02:32:32;;;;;;;;;;;9.60;81.10;;;;;;5085974;28;19916;-69
2021/05/24 02:34:59;;;;;;;;;;;9.60;80.80;;;;;;5069500;28;19912;-69
2021/05/24 02:37:24;;;;;;;;;;;9.70;80.40;;;;;;5084515;28;20324;-70
2021/05/24 02:39:50;;;;;;;;;;;9.80;80.40;;;;;;5080090;28;20003;-69
2021/05/24 02:42:16;;;;;;;;;;;9.80;80.30;;;;;;5074574;28;20225;-69
2021/05/24 02:44:41;;;;;;;;;;;9.70;80.40;;;;;;5093978;28;19923;-69
2021/05/24 02:47:07;;;;;;;;;;;9.70;80.70;;;;;;5095510;28;19920;-69
2021/05/24 02:49:32;;;;;;;;;;;9.70;80.60;;;;;;5098633;28;19979;-69
2021/05/24 02:51:58;;;;;;;;;;;9.80;80.50;;;;;;5099137;28;19916;-71
2021/05/24 02:54:24;;;;;;;;;;;9.90;80.10;;;;;;5100032;28;19916;-72
2021/05/24 02:56:49;;;;;;;;;;;9.90;80.50;;;;;;5106390;28;20247;-72
2021/05/24 02:59:15;;;;;;;;;;;9.90;80.10;;;;;;5113554;28;19917;-72
2021/05/24 03:01:40;;;;;;;;;;;9.90;80.10;;;;;;5100911;28;19916;-72
2021/05/24 03:04:07;;;;;;;;;;;10.00;79.50;;;;;;5089892;28;19991;-71
2021/05/24 03:06:33;;;;;;;;;;;10.10;78.90;;;;;;5089219;28;20277;-72
2021/05/24 03:08:58;;;;;;;;;;;10.10;78.90;;;;;;5088802;28;19953;-72
2021/05/24 03:11:24;;;;;;;;;;;10.10;78.40;;;;;;5106578;28;19916;-71
2021/05/24 03:13:50;;;;;;;;;;;10.20;78.20;;;;;;5089652;28;20007;-70
2021/05/24 03:16:17;;;;;;;;;;;10.10;78.50;;;;;;5080360;28;20311;-71
2021/05/24 03:18:42;;;;;;;;;;;10.10;78.20;;;;;;5107594;28;19912;-71
2021/05/24 03:21:08;;;;;;;;;;;10.10;78.60;;;;;;5099532;28;19928;-71
2021/05/24 03:23:34;;;;;;;;;;;10.10;78.40;;;;;;5091507;28;19919;-72
2021/05/24 03:25:59;;;;;;;;;;;10.00;78.50;;;;;;5085838;28;20264;-71
2021/05/24 03:28:25;;;;;;;;;;;10.00;78.70;;;;;;5105396;28;19981;-71
2021/05/24 03:30:50;;;;;;;;;;;10.00;78.70;;;;;;5099458;28;20212;-71
2021/05/24 03:33:16;;;;;;;;;;;10.00;79.00;;;;;;5094290;28;19919;-71
2021/05/24 03:35:42;;;;;;;;;;;9.90;79.40;;;;;;5081502;28;19923;-71
2021/05/24 03:38:10;;;;;;;;;;;9.90;79.20;;;;;;5108699;28;19923;-72
2021/05/24 03:40:35;;;;;;;;;;;9.90;79.40;;;;;;5098956;28;19927;-71
2021/05/24 03:43:01;;;;;;;;;;;9.80;79.80;;;;;;5082863;28;19912;-70
2021/05/24 03:45:27;;;;;;;;;;;9.90;79.70;;;;;;5094936;28;20295;-72
2021/05/24 03:47:54;;;;;;;;;;;9.90;80.00;;;;;;5081658;28;19923;-70
2021/05/24 03:50:19;;;;;;;;;;;9.80;80.60;;;;;;5067919;28;20301;-72
2021/05/24 03:52:45;;;;;;;;;;;9.80;80.70;;;;;;5075943;28;19960;-72
2021/05/24 03:55:13;;;;;;;;;;;9.70;81.30;;;;;;5095151;28;20002;-72
2021/05/24 03:57:39;;;;;;;;;;;9.70;80.50;;;;;;5098385;28;19953;-72
2021/05/24 04:00:08;;;;;;;;;;;9.60;81.30;;;;;;5081519;28;19920;-72
2021/05/24 04:02:34;;;;;;;;;;;9.50;81.70;;;;;;5078416;28;20275;-72
2021/05/24 04:05:03;;;;;;;;;;;9.40;82.10;;;;;;5092974;28;19926;-72
2021/05/24 04:07:29;;;;;;;;;;;9.30;82.10;;;;;;5083691;28;20297;-72
2021/05/24 04:10:03;;;;;;;;;;;9.20;82.80;;;;;;5070638;28;20000;-72
2021/05/24 04:12:29;;;;;;;;;;;9.00;84.10;;;;;;5080445;28;20004;-72
2021/05/24 04:14:56;;;;;;;;;;;8.90;84.00;;;;;;5091461;28;19959;-72
2021/05/24 04:17:23;;;;;;;;;;;8.70;84.90;;;;;;5091878;28;19916;-71
2021/05/24 04:19:50;;;;;;;;;;;8.60;85.70;;;;;;5102132;28;19919;-71
2021/05/24 04:22:15;;;;;;;;;;;8.60;86.30;;;;;;5101061;28;19916;-71
2021/05/24 04:24:41;;;;;;;;;;;8.60;85.60;;;;;;5092862;28;20023;-72
2021/05/24 04:27:07;;;;;;;;;;;8.70;85.60;;;;;;5103585;28;21876;-72
2021/05/24 04:29:32;;;;;;;;;;;8.50;87.00;;;;;;5089996;28;19911;-72
2021/05/24 04:31:58;;;;;;;;;;;8.40;87.60;;;;;;5102445;28;20313;-72
2021/05/24 04:34:23;;;;;;;;;;;8.20;88.30;;;;;;5088548;28;19916;-72
2021/05/24 04:36:49;;;;;;;;;;;8.10;88.70;;;;;;5089768;28;20610;-72
2021/05/24 04:39:14;;;;;;;;;;;8.00;89.00;;;;;;5098573;28;19920;-72
2021/05/24 04:41:40;;;;;;;;;;;8.00;89.20;;;;;;5100468;28;19965;-71
2021/05/24 04:44:21;;;;;;;;;;;8.00;89.10;;;;;;5086316;28;19912;-72
2021/05/24 04:46:48;;;;;;;;;;;8.00;89.90;;;;;;5091459;28;19967;-72
2021/05/24 04:49:14;;;;;;;;;;;7.90;90.50;;;;;;5084438;28;20197;-72
2021/05/24 04:51:40;;;;;;;;;;;7.80;90.70;;;;;;5109996;28;20007;-72
2021/05/24 04:54:06;;;;;;;;;;;7.70;91.10;;;;;;5091227;28;20030;-72
2021/05/24 04:56:32;;;;;;;;;;;7.70;91.10;;;;;;5095081;28;20225;-71
2021/05/24 04:58:58;;;;;;;;;;;7.70;91.20;;;;;;5101995;28;19912;-72
2021/05/24 05:01:23;;;;;;;;;;;7.60;91.70;;;;;;5105303;28;19918;-71
2021/05/24 05:03:49;;;;;;;;;;;7.60;91.90;;;;;;5094754;28;19950;-72
2021/05/24 05:06:14;;;;;;;;;;;7.70;91.80;;;;;;5097205;28;20007;-72
2021/05/24 05:08:40;;;;;;;;;;;7.70;91.70;;;;;;5107962;28;20630;-71
2021/05/24 05:11:05;;;;;;;;;;;7.80;91.70;;;;;;5101106;28;19927;-72
2021/05/24 05:13:31;;;;;;;;;;;7.70;91.90;;;;;;5089479;28;19912;-72
2021/05/24 05:15:56;;;;;;;;;;;7.70;92.00;;;;;;5096105;28;19916;-72
2021/05/24 05:18:22;;;;;;;;;;;7.80;91.70;;;;;;5104349;28;19916;-71
2021/05/24 05:20:47;;;;;;;;;;;7.80;91.80;;;;;;5091393;28;20003;-72
2021/05/24 05:23:13;;;;;;;;;;;7.90;92.00;;;;;;5104008;28;19935;-72
2021/05/24 05:25:39;;;;;;;;;;;7.80;91.80;;;;;;5086446;28;20399;-71
2021/05/24 05:28:04;;;;;;;;;;;7.90;91.70;;;;;;5097085;28;19916;-72
2021/05/24 05:30:30;;;;;;;;;;;8.00;92.10;;;;;;5084827;28;19913;-72
2021/05/24 05:32:55;;;;;;;;;;;8.20;91.80;;;;;;5091645;28;19966;-70
2021/05/24 05:35:21;;;;;;;;;;;8.30;91.80;;;;;;5091343;28;19912;-71
2021/05/24 05:37:51;;;;;;;;;;;8.50;91.40;;;;;;5094756;28;19923;-72
2021/05/24 05:40:18;;;;;;;;;;;8.50;91.60;;;;;;5089946;28;19916;-72
2021/05/24 05:42:47;;;;;;;;;;;8.60;91.90;;;;;;5087577;28;19939;-71
2021/05/24 05:45:13;;;;;;;;;;;8.50;92.00;;;;;;5090294;28;19921;-71
2021/05/24 05:47:38;;;;;;;;;;;8.60;92.30;;;;;;5087599;28;19913;-71
2021/05/24 05:50:04;;;;;;;;;;;8.70;92.30;;;;;;5092604;28;20308;-71
2021/05/24 05:52:30;;;;;;;;;;;8.70;92.00;;;;;;5090814;28;20366;-71
2021/05/24 05:54:56;;;;;;;;;;;8.90;91.90;;;;;;5084372;28;19920;-71
2021/05/24 05:57:21;;;;;;;;;;;9.10;91.10;;;;;;5084844;28;20263;-74
2021/05/24 05:59:47;;;;;;;;;;;9.30;88.80;;;;;;5086871;28;20291;-72
2021/05/24 06:02:12;;;;;;;;;;;9.30;86.80;;;;;;5063198;28;19957;-72
2021/05/24 06:04:38;;;;;;;;;;;9.30;88.00;;;;;;5083301;28;20275;-72
2021/05/24 06:07:04;;;;;;;;;;;9.40;88.60;;;;;;5089993;28;19924;-72
2021/05/24 06:09:29;;;;;;;;;;;9.60;88.90;;;;;;5084636;28;19923;-72
2021/05/24 06:11:55;;;;;;;;;;;9.80;86.90;;;;;;5063178;28;19923;-74
2021/05/24 06:14:21;;;;;;;;;;;9.90;87.00;;;;;;5083019;28;19920;-72
2021/05/24 06:16:47;;;;;;;;;;;10.10;86.40;;;;;;5094605;28;20003;-71
2021/05/24 06:19:13;;;;;;;;;;;10.30;85.10;;;;;;5067801;28;20006;-72
2021/05/24 06:21:38;;;;;;;;;;;10.40;83.80;;;;;;5093480;28;20311;-71
2021/05/24 06:24:04;;;;;;;;;;;10.40;82.30;;;;;;5093976;28;20018;-72
2021/05/24 06:26:29;;;;;;;;;;;10.30;82.60;;;;;;5089617;28;19916;-71
2021/05/24 06:28:55;;;;;;;;;;;10.40;82.10;;;;;;5095777;28;19919;-71
2021/05/24 06:31:20;;;;;;;;;;;10.60;81.80;;;;;;5093180;28;19924;-71
2021/05/24 06:33:46;;;;;;;;;;;10.90;81.30;;;;;;5099282;28;19912;-71
2021/05/24 06:36:14;;;;;;;;;;;11.10;81.60;;;;;;5091069;28;19923;-71
2021/05/24 06:38:40;;;;;;;;;;;11.40;80.90;;;;;;5089765;28;19919;-70
2021/05/24 06:41:05;;;;;;;;;;;11.60;79.80;;;;;;5086949;28;19920;-71
2021/05/24 06:43:31;;;;;;;;;;;11.70;79.20;;;;;;5096040;28;19963;-71
2021/05/24 06:45:57;;;;;;;;;;;11.80;79.60;;;;;;5072023;28;19920;-72
2021/05/24 06:48:22;;;;;;;;;;;11.80;80.50;;;;;;5066775;28;19919;-72
2021/05/24 06:50:48;;;;;;;;;;;11.90;79.70;;;;;;5083905;28;19978;-72
2021/05/24 06:53:13;;;;;;;;;;;12.20;79.40;;;;;;5080649;28;20233;-71
2021/05/24 06:55:39;;;;;;;;;;;12.10;79.00;;;;;;5085415;28;20308;-72
2021/05/24 06:58:05;;;;;;;;;;;12.20;79.60;;;;;;5097103;28;19947;-72
2021/05/24 07:00:30;;;;;;;;;;;12.30;79.00;;;;;;5103148;28;19927;-71
2021/05/24 07:02:56;;;;;;;;;;;12.60;78.60;;;;;;5111652;28;19920;-71
2021/05/24 07:05:21;;;;;;;;;;;12.90;76.00;;;;;;5080534;28;20190;-71
2021/05/24 07:07:47;;;;;;;;;;;13.20;74.60;;;;;;5111635;28;20005;-71
2021/05/24 07:10:14;;;;;;;;;;;13.60;72.80;;;;;;5077199;28;19998;-71
2021/05/24 07:12:42;;;;;;;;;;;13.40;72.50;;;;;;5086580;28;19917;-71
2021/05/24 07:15:08;;;;;;;;;;;13.40;73.00;;;;;;5082900;28;19973;-72
2021/05/24 07:17:34;;;;;;;;;;;13.60;72.10;;;;;;5081416;28;20301;-71
2021/05/24 07:20:01;;;;;;;;;;;13.90;72.60;;;;;;5079188;28;19920;-72
2021/05/24 07:22:26;;;;;;;;;;;14.20;71.30;;;;;;5077653;28;19928;-72
2021/05/24 07:24:53;;;;;;;;;;;14.20;71.30;;;;;;5081738;28;19920;-72
2021/05/24 07:27:19;;;;;;;;;;;14.50;71.60;;;;;;5091769;28;20312;-72
2021/05/24 07:29:48;;;;;;;;;;;14.70;71.50;;;;;;5101272;28;19916;-72
2021/05/24 07:32:13;;;;;;;;;;;14.70;71.20;;;;;;5093265;28;19916;-71
2021/05/24 07:34:39;;;;;;;;;;;15.10;71.90;;;;;;5095774;28;19985;-71
2021/05/24 07:37:05;;;;;;;;;;;15.60;70.60;;;;;;5098353;28;19920;-72
2021/05/24 07:39:31;;;;;;;;;;;15.40;71.10;;;;;;5098924;28;19952;-72
2021/05/24 07:42:00;;;;;;;;;;;15.70;71.10;;;;;;5092259;28;20342;-72
2021/05/24 07:44:26;;;;;;;;;;;16.30;70.00;;;;;;5085248;28;19920;-72
2021/05/24 07:46:51;;;;;;;;;;;17.30;68.40;;;;;;5087296;28;19916;-72
2021/05/24 07:49:18;;;;;;;;;;;17.10;68.50;;;;;;5097151;28;19916;-72
2021/05/24 07:51:44;;;;;;;;;;;17.20;68.70;;;;;;5082754;28;19986;-72
2021/05/24 07:54:09;;;;;;;;;;;17.60;67.90;;;;;;5068674;28;19916;-72
2021/05/24 07:56:35;;;;;;;;;;;17.60;68.00;;;;;;5077144;28;19963;-72
2021/05/24 07:59:00;;;;;;;;;;;17.20;67.70;;;;;;5092229;28;19983;-72
2021/05/24 08:01:26;;;;;;;;;;;16.70;68.70;;;;;;5091869;28;20293;-72
2021/05/24 08:03:51;;;;;;;;;;;16.90;69.40;;;;;;5088210;28;19957;-72
2021/05/24 08:06:17;;;;;;;;;;;17.20;69.00;;;;;;5085557;28;20010;-73
2021/05/24 08:08:43;;;;;;;;;;;17.40;68.00;;;;;;5108629;28;19912;-73
2021/05/24 08:11:11;;;;;;;;;;;17.30;68.50;;;;;;5098686;28;19923;-72
2021/05/24 08:13:37;;;;;;;;;;;17.10;68.40;;;;;;5096648;28;19989;-72
2021/05/24 08:16:02;;;;;;;;;;;16.90;68.60;;;;;;5087785;28;20634;-72
2021/05/24 08:18:28;;;;;;;;;;;16.80;68.90;;;;;;5093604;28;20022;-72
2021/05/24 08:20:53;;;;;;;;;;;16.70;69.30;;;;;;5103773;28;20083;-72
2021/05/24 08:23:19;;;;;;;;;;;16.70;69.40;;;;;;5111823;28;19908;-72
2021/05/24 08:25:44;;;;;;;;;;;16.70;71.00;;;;;;5106211;28;20343;-72
2021/05/24 08:28:10;;;;;;;;;;;16.60;70.50;;;;;;5090112;28;20223;-72
2021/05/24 08:30:36;;;;;;;;;;;16.40;70.80;;;;;;5089302;28;19918;-72
2021/05/24 08:33:01;;;;;;;;;;;16.30;71.60;;;;;;5084529;28;19963;-71
2021/05/24 08:35:27;;;;;;;;;;;16.80;71.10;;;;;;5083675;28;20221;-72
2021/05/24 08:37:53;;;;;;;;;;;17.10;70.20;;;;;;5091992;28;19938;-72
2021/05/24 08:40:18;;;;;;;;;;;17.50;68.80;;;;;;5092354;28;19920;-72
2021/05/24 08:42:44;;;;;;;;;;;17.70;69.20;;;;;;5084941;28;19979;-71
2021/05/24 08:45:11;;;;;;;;;;;17.50;70.30;;;;;;5096940;28;19912;-71
2021/05/24 08:47:36;;;;;;;;;;;17.50;70.40;;;;;;5090758;28;19963;-72
2021/05/24 08:50:03;;;;;;;;;;;17.20;71.70;;;;;;5091419;28;20359;-72
2021/05/24 08:52:29;;;;;;;;;;;17.10;73.00;;;;;;5102020;28;19912;-72
2021/05/24 08:54:54;;;;;;;;;;;17.20;72.60;;;;;;5095324;28;19930;-72
2021/05/24 08:57:20;;;;;;;;;;;17.40;72.40;;;;;;5084976;28;20321;-73
2021/05/24 08:59:45;;;;;;;;;;;17.60;72.00;;;;;;5082096;28;19912;-71
2021/05/24 09:02:12;;;;;;;;;;;18.00;73.30;;;;;;5088288;28;20321;-71
2021/05/24 09:04:42;;;;;;;;;;;18.60;69.90;;;;;;5083926;28;19951;-72
2021/05/24 09:07:07;;;;;;;;;;;18.40;69.50;;;;;;5096425;28;20331;-72
2021/05/24 09:09:33;;;;;;;;;;;18.30;70.90;;;;;;5110684;28;19924;-72
2021/05/24 09:11:59;;;;;;;;;;;18.90;69.50;;;;;;5098812;28;19927;-72
2021/05/24 09:14:25;;;;;;;;;;;19.00;69.40;;;;;;5090135;28;19916;-73
2021/05/24 09:16:59;;;;;;;;;;;18.50;71.00;;;;;;5096810;28;20001;-72
2021/05/24 09:19:25;;;;;;;;;;;18.80;69.70;;;;;;5066823;28;19923;-72
2021/05/24 09:21:55;;;;;;;;;;;18.90;71.00;;;;;;5090062;28;20233;-72
2021/05/24 09:24:22;;;;;;;;;;;18.80;69.60;;;;;;5094758;28;20309;-72
2021/05/24 09:26:48;;;;;;;;;;;18.40;71.10;;;;;;5088338;28;19912;-73
2021/05/24 09:29:13;;;;;;;;;;;18.50;71.60;;;;;;5093287;28;19920;-71
2021/05/24 09:31:39;;;;;;;;;;;18.70;71.30;;;;;;5092597;28;19916;-71
2021/05/24 09:34:06;;;;;;;;;;;18.90;71.40;;;;;;5095290;28;19908;-70
2021/05/24 09:36:32;;;;;;;;;;;18.90;71.10;;;;;;5089309;28;19949;-71
2021/05/24 09:39:01;;;;;;;;;;;19.10;72.10;;;;;;5078682;28;20011;-72
2021/05/24 09:41:27;;;;;;;;;;;19.20;71.10;;;;;;5106076;28;20307;-72
2021/05/24 09:43:53;;;;;;;;;;;19.40;68.20;;;;;;5096756;28;19919;-72
2021/05/24 09:46:20;;;;;;;;;;;19.50;69.10;;;;;;5099042;28;20349;-73
2021/05/24 09:48:47;;;;;;;;;;;19.70;68.10;;;;;;5107617;28;20189;-73
2021/05/24 09:51:14;;;;;;;;;;;19.30;69.40;;;;;;5080168;28;20216;-73
2021/05/24 09:53:41;;;;;;;;;;;19.80;68.30;;;;;;5079024;28;19919;-72
2021/05/24 09:56:11;;;;;;;;;;;19.90;68.10;;;;;;5098559;28;19931;-71
2021/05/24 09:58:37;;;;;;;;;;;19.60;68.80;;;;;;5100368;28;19931;-72
2021/05/24 10:01:21;;;;;;;;;;;20.10;66.30;;;;;;5099634;28;19916;-72
2021/05/24 10:03:55;;;;;;;;;;;20.00;66.70;;;;;;5098473;28;20247;-72
2021/05/24 10:06:21;;;;;;;;;;;20.70;65.40;;;;;;5097257;28;19999;-72
2021/05/24 10:08:48;;;;;;;;;;;20.80;65.00;;;;;;5099246;28;20002;-73
2021/05/24 10:11:13;;;;;;;;;;;20.70;63.20;;;;;;5100929;28;19912;-73
2021/05/24 10:13:39;;;;;;;;;;;20.40;65.40;;;;;;5102750;28;20033;-73
2021/05/24 10:16:05;;;;;;;;;;;20.20;66.10;;;;;;5100636;28;20034;-72
2021/05/24 10:18:33;;;;;;;;;;;20.30;66.60;;;;;;5117905;28;19980;-71
2021/05/24 10:21:00;;;;;;;;;;;19.80;67.20;;;;;;5116664;28;20005;-72
2021/05/24 10:23:26;;;;;;;;;;;19.90;66.50;;;;;;5114151;28;20227;-71
2021/05/24 10:25:53;;;;;;;;;;;20.20;65.20;;;;;;5094536;28;19962;-71
2021/05/24 10:28:21;;;;;;;;;;;20.30;65.00;;;;;;5087961;28;19916;-71
2021/05/24 10:30:47;;;;;;;;;;;20.20;64.10;;;;;;5084094;28;19919;-71
2021/05/24 10:33:13;;;;;;;;;;;20.40;64.80;;;;;;5095488;28;19916;-71
2021/05/24 10:35:38;;;;;;;;;;;20.30;63.90;;;;;;5091754;28;19920;-72
2021/05/24 10:38:26;;;;;;;;;;;20.40;66.30;;;;;;5093473;28;19932;-72
2021/05/24 10:41:01;;;;;;;;;;;20.50;64.20;;;;;;5092932;28;20224;-72
2021/05/24 10:43:37;;;;;;;;;;;19.90;65.70;;;;;;5094491;28;19912;-72
2021/05/24 10:46:22;;;;;;;;;;;19.80;65.60;;;;;;5097181;28;20007;-72
2021/05/24 10:49:00;;;;;;;;;;;19.60;66.00;;;;;;5096917;28;19930;-72
2021/05/24 10:51:44;;;;;;;;;;;19.10;66.90;;;;;;5095313;28;20002;-72
2021/05/24 10:54:10;;;;;;;;;;;19.10;68.10;;;;;;5093255;28;20002;-72
2021/05/24 10:56:42;;;;;;;;;;;19.20;68.30;;;;;;5094832;28;20012;-72
2021/05/24 10:59:27;;;;;;;;;;;19.50;67.50;;;;;;5099387;28;19913;-72
2021/05/24 11:01:59;;;;;;;;;;;19.40;68.20;;;;;;5094814;28;19962;-71
2021/05/24 11:04:43;;;;;;;;;;;19.20;69.40;;;;;;5095589;28;20002;-71
2021/05/24 11:07:42;;;;;;;;;;;19.00;69.20;;;;;;5089895;28;19966;-72
2021/05/24 11:10:14;;;;;;;;;;;19.80;69.60;;;;;;5049625;28;19920;-72
2021/05/24 11:12:40;;;;;;;;;;;20.90;67.20;;;;;;5097595;28;19964;-71
2021/05/24 11:15:07;;;;;;;;;;;21.40;64.50;;;;;;5093850;28;20201;-72
2021/05/24 11:17:51;;;;;;;;;;;20.60;67.70;;;;;;5081431;28;20007;-71
2021/05/24 11:20:26;;;;;;;;;;;20.70;65.60;;;;;;5097309;28;20289;-70
2021/05/24 11:26:14;;;;;;;;;;;21.80;55.80;;;;;;5092355;28;19934;-71
2021/05/24 11:28:40;;;;;;;;;;;22.10;57.40;;;;;;5092291;28;19923;-71
2021/05/24 11:31:12;;;;;;;;;;;22.00;55.40;;;;;;5072282;28;20246;-72
2021/05/24 11:33:49;;;;;;;;;;;22.10;55.30;;;;;;5094844;28;19965;-72
2021/05/24 11:36:21;;;;;;;;;;;22.10;56.10;;;;;;5094929;28;19939;-72
2021/05/24 11:39:05;;;;;;;;;;;22.30;54.60;;;;;;5096040;28;20309;-71
2021/05/24 11:41:32;;;;;;;;;;;22.60;57.00;;;;;;5085324;28;19948;-71
2021/05/24 11:44:02;;;;;;;;;;;22.10;57.30;;;;;;5077324;28;19912;-71
2021/05/24 11:46:48;;;;;;;;;;;21.70;54.50;;;;;;5091864;28;19911;-70
2021/05/24 11:49:15;;;;;;;;;;;21.70;53.50;;;;;;5089910;28;20364;-70
2021/05/24 11:51:41;;;;;;;;;;;22.20;53.30;;;;;;5099780;28;19911;-71
2021/05/24 11:54:08;;;;;;;;;;;22.20;52.60;;;;;;5101189;28;19966;-72
2021/05/24 11:56:37;;;;;;;;;;;22.20;52.50;;;;;;5107240;28;19927;-71
2021/05/24 11:59:04;;;;;;;;;;;22.20;48.80;;;;;;5098870;28;20356;-71
2021/05/24 12:01:29;;;;;;;;;;;22.70;49.10;;;;;;5083439;28;19919;-71
2021/05/24 12:03:56;;;;;;;;;;;23.30;47.30;;;;;;5089630;28;20212;-71
2021/05/24 12:06:22;;;;;;;;;;;22.80;47.90;;;;;;5084537;28;19957;-71
2021/05/24 12:08:47;;;;;;;;;;;22.70;49.10;;;;;;5093832;28;19919;-71
2021/05/24 12:11:14;;;;;;;;;;;22.00;47.80;;;;;;5069867;28;20007;-71
2021/05/24 12:13:58;;;;;;;;;;;21.20;48.80;;;;;;5099852;28;19937;-71
2021/05/24 12:16:24;;;;;;;;;;;20.20;50.10;;;;;;5097551;28;19923;-71
2021/05/24 12:18:56;;;;;;;;;;;19.50;50.50;;;;;;5096417;28;19920;-71
2021/05/24 12:21:35;;;;;;;;;;;19.00;52.30;;;;;;5089321;28;19919;-70
2021/05/24 12:24:02;;;;;;;;;;;18.80;53.40;;;;;;5106785;28;19919;-71
2021/05/24 12:26:27;;;;;;;;;;;19.10;52.70;;;;;;5104361;28;20186;-70
2021/05/24 12:28:53;;;;;;;;;;;19.00;52.60;;;;;;5096896;28;19908;-71
2021/05/24 12:31:20;;;;;;;;;;;18.70;52.00;;;;;;5095726;28;19935;-71
2021/05/24 12:33:46;;;;;;;;;;;18.60;52.20;;;;;;5084162;28;19965;-70
2021/05/24 12:36:14;;;;;;;;;;;18.50;52.90;;;;;;5097847;28;19916;-70
2021/05/24 12:38:46;;;;;;;;;;;18.60;53.40;;;;;;5092151;28;20007;-71
2021/05/24 12:41:12;;;;;;;;;;;18.70;54.20;;;;;;5087007;28;19957;-71
2021/05/24 12:43:50;;;;;;;;;;;18.80;52.80;;;;;;5084325;28;19912;-71
2021/05/24 12:46:20;;;;;;;;;;;18.60;52.40;;;;;;5080756;28;19908;-71
2021/05/24 12:48:50;;;;;;;;;;;18.50;52.30;;;;;;5097607;28;19984;-71
2021/05/24 12:51:27;;;;;;;;;;;18.50;52.70;;;;;;5086459;28;19933;-71
2021/05/24 12:53:57;;;;;;;;;;;18.70;53.30;;;;;;5108812;28;19912;-71
2021/05/24 12:56:32;;;;;;;;;;;18.70;52.70;;;;;;5095788;28;20266;-71
2021/05/24 12:59:00;;;;;;;;;;;18.90;53.50;;;;;;5095922;28;19993;-70
2021/05/24 13:01:33;;;;;;;;;;;19.00;53.40;;;;;;5095946;28;19908;-70
2021/05/24 13:04:02;;;;;;;;;;;18.90;53.00;;;;;;5093980;28;19916;-70
2021/05/24 13:06:27;;;;;;;;;;;19.00;52.60;;;;;;5074687;28;19909;-70
2021/05/24 13:08:58;;;;;;;;;;;19.10;53.10;;;;;;5095325;28;20391;-70
2021/05/24 13:11:25;;;;;;;;;;;18.90;53.30;;;;;;5090415;28;19966;-70
2021/05/24 13:14:08;;;;;;;;;;;19.00;53.20;;;;;;5073951;28;19931;-70
2021/05/24 13:16:39;;;;;;;;;;;18.80;53.40;;;;;;5082946;28;20449;-71
2021/05/24 13:28:21;;;;;;;;;;;20.10;53.90;;;;;;5085479;28;20208;-70
2021/05/24 13:30:28;;;;;;;;;;;20.40;52.00;;;;;;5082922;28;20202;-70
2021/05/24 13:32:54;;;;;;;;;;;20.30;51.00;;;;;;5077657;28;20053;-70
2021/05/24 13:35:30;;;;;;;;;;;19.90;52.70;;;;;;5075034;28;19923;-70
2021/05/24 13:37:57;;;;;;;;;;;19.70;53.80;;;;;;5074232;28;20252;-70
2021/05/24 13:40:23;;;;;;;;;;;19.40;53.20;;;;;;5076335;28;19963;-71
2021/05/24 13:42:49;;;;;;;;;;;19.10;53.50;;;;;;5074745;28;19947;-71
2021/05/24 13:45:18;;;;;;;;;;;19.20;53.80;;;;;;5066558;28;19923;-71
2021/05/24 13:47:45;;;;;;;;;;;19.20;53.30;;;;;;5074862;28;19917;-71
2021/05/24 13:50:11;;;;;;;;;;;19.00;53.80;;;;;;5076894;28;20013;-70
2021/05/24 13:52:37;;;;;;;;;;;19.00;54.20;;;;;;5077842;28;19921;-71
2021/05/24 13:55:04;;;;;;;;;;;18.90;55.90;;;;;;5075782;28;20023;-71
2021/05/24 13:57:30;;;;;;;;;;;19.10;55.20;;;;;;5077038;28;19929;-71
2021/05/24 13:59:55;;;;;;;;;;;19.20;55.00;;;;;;5078516;28;19920;-71
2021/05/24 14:02:23;;;;;;;;;;;19.10;55.00;;;;;;5078731;28;19967;-70
2021/05/24 14:04:49;;;;;;;;;;;19.40;55.20;;;;;;5075491;28;19912;-70
2021/05/24 14:07:14;;;;;;;;;;;19.30;56.00;;;;;;5074107;28;19935;-70
2021/05/24 14:09:40;;;;;;;;;;;19.30;55.40;;;;;;5075718;28;19979;-71
2021/05/24 14:12:06;;;;;;;;;;;19.10;55.20;;;;;;5062257;28;19977;-71
2021/05/24 14:14:31;;;;;;;;;;;18.80;55.80;;;;;;5076268;28;21204;-71
2021/05/24 14:16:57;;;;;;;;;;;18.50;56.50;;;;;;5074485;28;20007;-72
2021/05/24 14:19:22;;;;;;;;;;;18.20;55.30;;;;;;5079547;28;19930;-71
2021/05/24 14:21:48;;;;;;;;;;;18.10;57.10;;;;;;5072965;28;19927;-71
2021/05/24 14:24:13;;;;;;;;;;;18.30;58.10;;;;;;5075310;28;19931;-71
2021/05/24 14:26:39;;;;;;;;;;;18.10;57.20;;;;;;5065160;28;19927;-70
2021/05/24 14:29:04;;;;;;;;;;;17.90;57.40;;;;;;5077376;28;20198;-71
2021/05/24 14:31:31;;;;;;;;;;;17.70;57.50;;;;;;5074331;28;20305;-71
2021/05/24 14:33:57;;;;;;;;;;;17.70;57.70;;;;;;5076105;28;19912;-71